الصفحة الرئيسية
METAR-TAF:

METAR-TAF

مطار :

Pangnirtung, نونافوت, كندا

دائرة عرض: 66-09N, خط طول: 065-43W, ارتفاع: 23 متر

مراقبة الطقس الحالي

تاريخ ووقت الإصدار 1ساعة و 18 دقيقة قبل الساعة 15:00UTC
ريح 7 عقدة من الشمال الشرقي, الاتجاه يتراوح بين الشمال/الشمال الغربي و الجنوب الشرقي
درجة الحرارة 8°درجة مئوية
الرطوبة 71%
ضغط 1003 hPa
الرؤية: 24.1 كم
غيوم متفرقة على ارتفاع 12000 قدم
غيوم مفككة على ارتفاع 14000 قدم
غيوم مفككة على ارتفاع 23000 قدم

METAR: CYXP 151500Z 05007KT 340V140 15SM SCT120 BKN140 BKN230 08/03 A2963 RMK AC4AC2CI1 HIGHER AC LENT SLP036

زمن: 12:18 (16:18 UTC)

توقعات

تاريخ ووقت الإصدار 38 دقيقة قبل الساعة 15:40UTC
التوقعات صالحة من15 الساعة 16 UTC إلى 15 الساعة 19 UTC
ريح 3 عقدةمن اتجاهات متغيرة
الرؤية: 10 كم
غيوم متفرقة على ارتفاع 1200 قدم
غيوم مفككة على ارتفاع 12000 قدم
أصبح
من 15 الساعة 16 UTC إلى 15 الساعة 18 UTC
ريح 10 عقدة من الشرق

TAF: CYXP 151540Z 1516/1519 VRB03KT P6SM SCT012 BKN120 BECMG 1516/1518 09010KT RMK NXT FCST BY 161800Z

أرصاد الطقس والتوقعات من أكثر من 4000 مطار (تقارير الطقس للمطار METAR والتنبؤ بالطقس بالمطارTAF).

المحطات المتاحة هي النقط الصفراء والحمراء على الخريطة.

حرك المؤشر فوق النقطة لمعرفة اسم المحطة.

ثم انقر لمعرفة أرصاد وتوقعات الطقس.

لتغيير الخارطة: اضغط على الأزرار الخضراء مع رمز الصليب الأسود للتكبير. على الزر الأخضر مع شرطة للتصغير، أو على الأسهم الخضراء للخرائط المجاورة.


METAR-TAF: